^^

..:: Storico WU ::..




Lo storico viene creato da WUnderground con i dati che la stazione Meteomincio invia al loro server. L' aggiornamento viene fatto ogni 5 minuti circa, tuttavia possono esserci intervalli pi¨ ampi a causa di errori, interruzioni di servizio o problemi nell' invio tramite FTP.


Storico stazione MeteoMincio
Giorno Sommario per Marzo 26, 2022 Unità:  Inglese    Metrico   Entrambi
Giorno Settimana Mese Anno
  Max: Min: Media:
Temperatura: 71.6 °F 37 °F 54.5 °F
Dew Point: 40.8 °F 29.1 °F 35.1 °F
Umidità: 73.8% 24.5% 51%
Velocità vento: 7mph 0mph 2.1mph
Raffica: 13mph - -
Direzione- - South
Pressione: 30.4 in 30.3 in -
Precipitazioni: 0 in    
 
 
Tabulato Dati per Marzo 26, 2022
Ora Temperatura Dew Point Pressione Direzione Velocità vento Raffica Umidità Intensità pioggia (oraria) Info solare Situazione
00:04 46.6 °F 35.6 °F 30.3 in East 0.1 mph 3 mph 65.4% 0 in 0 W/m2
00:09 46.2 °F 35.6 °F 30.3 in Calm   2 mph 66.2% 0 in 0 W/m2
00:14 46 °F 35.6 °F 30.3 in Calm     66.6% 0 in 0 W/m2
00:19 44.8 °F 34.2 °F 30.3 in Calm     66.1% 0 in 0 W/m2
00:24 44.4 °F 34.3 °F 30.3 in Calm     67.8% 0 in 0 W/m2
00:29 44.2 °F 34.7 °F 30.3 in Calm     68.7% 0 in 0 W/m2
00:34 44.2 °F 34.7 °F 30.3 in Calm     68.6% 0 in 0 W/m2
00:39 44.4 °F 34.7 °F 30.3 in NNW 0.6 mph 3.5 mph 68.6% 0 in 0 W/m2
00:44 44.2 °F 34.3 °F 30.3 in NNW 2.4 mph 3.5 mph 67.8% 0 in 0 W/m2
00:49 44.2 °F 33.8 °F 30.3 in NNW 1.9 mph 3.5 mph 66.9% 0 in 0 W/m2
00:54 43.7 °F 33.1 °F 30.3 in NNW 1.4 mph 3 mph 66% 0 in 0 W/m2
00:59 42.3 °F 32.2 °F 30.3 in NNW 1.9 mph 3.5 mph 67.3% 0 in 0 W/m2
01:04 41.5 °F 32.2 °F 30.3 in NW 2.3 mph 3.5 mph 69% 0 in 0 W/m2
01:09 41.2 °F 32.2 °F 30.3 in WNW 3.5 mph 6 mph 70.1% 0 in 0 W/m2
01:14 41 °F 32 °F 30.3 in WNW 4.2 mph 6 mph 69.8% 0 in 0 W/m2
01:19 41.5 °F 32 °F 30.3 in WNW 3.2 mph 6 mph 68.9% 0 in 0 W/m2
01:24 42.8 °F 32.4 °F 30.3 in NNW 2.1 mph 3.5 mph 66.7% 0 in 0 W/m2
01:29 43.3 °F 32.4 °F 30.3 in NNW 1.9 mph 3.5 mph 65.3% 0 in 0 W/m2
01:34 43.5 °F 32.5 °F 30.3 in NNW 2.1 mph 3.5 mph 65% 0 in 0 W/m2
01:39 44.1 °F 32.7 °F 30.3 in North 2.1 mph 3.5 mph 64.3% 0 in 0 W/m2
01:44 44.1 °F 32.7 °F 30.3 in NNW 2.1 mph 4 mph 63.9% 0 in 0 W/m2
01:49 44.2 °F 32.7 °F 30.3 in North 3.2 mph 4 mph 63.7% 0 in 0 W/m2
01:54 44.8 °F 32.5 °F 30.3 in North 3.6 mph 5 mph 62% 0 in 0 W/m2
01:59 45.1 °F 32.5 °F 30.3 in North 3 mph 5 mph 61% 0 in 0 W/m2
02:04 45.1 °F 32.4 °F 30.3 in North 3.2 mph 4 mph 60.8% 0 in 0 W/m2
02:09 45.5 °F 32.4 °F 30.3 in NNE 2.9 mph 4 mph 59.8% 0 in 0 W/m2
02:14 46 °F 32.5 °F 30.3 in NNE 2.1 mph 4 mph 59% 0 in 0 W/m2
02:19 45.5 °F 32.4 °F 30.3 in North 2.1 mph 3.5 mph 59.9% 0 in 0 W/m2
02:24 44.4 °F 32.2 °F 30.3 in NNE 1.8 mph 3.5 mph 61.8% 0 in 0 W/m2
02:29 43.7 °F 32 °F 30.3 in NNE 1.5 mph 3 mph 63.3% 0 in 0 W/m2
02:34 43.3 °F 32.2 °F 30.3 in NNE 1.2 mph 2.3 mph 64.6% 0 in 0 W/m2
02:39 42.8 °F 32.4 °F 30.3 in NNE 1 mph 2.3 mph 66.5% 0 in 0 W/m2
02:44 42.1 °F 32.5 °F 30.3 in NNE 1.6 mph 2.3 mph 68.8% 0 in 0 W/m2
02:49 41.5 °F 32.7 °F 30.3 in NNE 1.5 mph 2.3 mph 70.8% 0 in 0 W/m2
02:54 41.7 °F 32.7 °F 30.3 in NNE 1.4 mph 2.3 mph 70.3% 0 in 0 W/m2
02:59 41.7 °F 32.7 °F 30.3 in NNE 0.3 mph 2 mph 70% 0 in 0 W/m2
03:04 41.4 °F 32.4 °F 30.3 in North 1.1 mph 2.3 mph 70.1% 0 in 0 W/m2
03:09 40.6 °F 32.2 °F 30.3 in NW 1.2 mph 2.3 mph 71.6% 0 in 0 W/m2
03:14 40.8 °F 32.2 °F 30.3 in NW 1.3 mph 2.3 mph 71.2% 0 in 0 W/m2
03:19 40.8 °F 31.8 °F 30.3 in NW 1.5 mph 2.3 mph 70% 0 in 0 W/m2
03:24 41.4 °F 32.2 °F 30.3 in NW 1.1 mph 2.3 mph 69.6% 0 in 0 W/m2
03:29 41.9 °F 32.2 °F 30.3 in NW 1.4 mph 2.3 mph 68% 0 in 0 W/m2
03:34 41.9 °F 32.2 °F 30.3 in NW 1 mph 2.3 mph 68.1% 0 in 0 W/m2
03:39 41.5 °F 32.2 °F 30.3 in NW 0.7 mph 2 mph 69.1% 0 in 0 W/m2
03:44 41.2 °F 31.8 °F 30.3 in NW 0.5 mph 1.2 mph 69.1% 0 in 0 W/m2
03:49 41.2 °F 32.2 °F 30.3 in NW 1.1 mph 2.3 mph 70% 0 in 0 W/m2
03:54 41 °F 32.2 °F 30.3 in NW 0.4 mph 2 mph 70.5% 0 in 0 W/m2
03:59 40.8 °F 31.8 °F 30.3 in Calm   1 mph 70.3% 0 in 0 W/m2
04:04 39.7 °F 30.7 °F 30.3 in WSW 1.4 mph 4 mph 70% 0 in 0 W/m2
04:09 38.8 °F 30.2 °F 30.3 in WSW 3.1 mph 5 mph 70.8% 0 in 0 W/m2
04:14 38.8 °F 30.4 °F 30.3 in WSW 1.4 mph 5 mph 71.8% 0 in 0 W/m2
04:19 39.2 °F 30.6 °F 30.3 in WSW 2.5 mph 4 mph 71% 0 in 0 W/m2
04:24 38.7 °F 30 °F 30.3 in WSW 3.2 mph 4 mph 71% 0 in 0 W/m2
04:29 38.1 °F 29.8 °F 30.3 in WSW 2.5 mph 3.5 mph 71.7% 0 in 0 W/m2
04:34 38.7 °F 30.2 °F 30.3 in WSW 1.9 mph 3.5 mph 71.4% 0 in 0 W/m2
04:39 39 °F 30 °F 30.3 in WSW 2.5 mph 4 mph 70.2% 0 in 0 W/m2
04:44 38.8 °F 29.8 °F 30.3 in WSW 3.1 mph 4 mph 70% 0 in 0 W/m2
04:49 38.7 °F 29.8 °F 30.3 in WSW 3.5 mph 5 mph 70% 0 in 0 W/m2
04:54 38.5 °F 29.8 °F 30.3 in WSW 3 mph 5 mph 70.8% 0 in 0 W/m2
04:59 39 °F 30 °F 30.3 in West 1.9 mph 4 mph 70.1% 0 in 0 W/m2
05:04 39 °F 30 °F 30.3 in West 2 mph 3.5 mph 70% 0 in 0 W/m2
05:09 38.5 °F 29.5 °F 30.3 in West 2.2 mph 3.5 mph 70.3% 0 in 0 W/m2
05:14 37.9 °F 29.3 °F 30.3 in West 1.7 mph 3.5 mph 71% 0 in 0 W/m2
05:19 37.6 °F 29.1 °F 30.3 in West 2 mph 3.5 mph 71.4% 0 in 0 W/m2
05:24 37.2 °F 29.3 °F 30.3 in West 2.2 mph 3.5 mph 72.8% 0 in 0 W/m2
05:29 37.6 °F 29.5 °F 30.3 in WSW 1.9 mph 3.5 mph 72% 0 in 0 W/m2
05:34 37.8 °F 29.5 °F 30.3 in WSW 1.6 mph 3 mph 72% 0 in 0 W/m2
05:39 37.9 °F 29.7 °F 30.3 in West 1.9 mph 3.5 mph 71.6% 0 in 0 W/m2
05:44 37.8 °F 29.5 °F 30.3 in WSW 2.2 mph 3.5 mph 72% 0 in 0 W/m2
05:49 37.2 °F 29.3 °F 30.3 in WSW 2.5 mph 3.5 mph 72.8% 0 in 0 W/m2
05:54 37 °F 29.3 °F 30.3 in WSW 2.4 mph 3.5 mph 73% 0 in 0 W/m2
05:59 37.4 °F 29.5 °F 30.3 in West 1.2 mph 3.5 mph 73% 0 in 0 W/m2
06:04 37.9 °F 30 °F 30.3 in West 0.1 mph 3 mph 73% 0 in 0 W/m2
06:09 37.8 °F 29.7 °F 30.3 in Calm     72.5% 0 in 0 W/m2
06:14 37.2 °F 29.3 °F 30.3 in WSW 0.6 mph 3 mph 73% 0 in 7 W/m2
06:19 37 °F 29.1 °F 30.3 in WSW 2.1 mph 3.5 mph 73% 0 in 9 W/m2
06:24 37 °F 29.5 °F 30.3 in WSW 1.4 mph 3 mph 73.8% 0 in 12 W/m2
06:29 37.4 °F 29.5 °F 30.3 in WSW 0.6 mph 2.3 mph 73.2% 0 in 16 W/m2
06:34 37.6 °F 29.8 °F 30.3 in WSW 0.1 mph 2 mph 73% 0 in 19 W/m2
06:39 38.1 °F 30.2 °F 30.3 in WSW 0.5 mph 1.2 mph 72.9% 0 in 25 W/m2
06:44 38.5 °F 30.6 °F 30.3 in WSW 0.1 mph 1.2 mph 72.9% 0 in 28 W/m2
06:49 38.8 °F 30.6 °F 30.3 in West 0.1 mph 1.2 mph 72% 0 in 35 W/m2
06:54 39 °F 30.7 °F 30.3 in West 0.8 mph 2.3 mph 72% 0 in 42 W/m2
06:59 39.2 °F 30.9 °F 30.3 in WNW 1.7 mph 3.5 mph 71.9% 0 in 49 W/m2
07:04 39.6 °F 31.3 °F 30.3 in WNW 1.5 mph 3.5 mph 71.8% 0 in 60 W/m2
07:09 39.9 °F 31.5 °F 30.3 in West 1.3 mph 3 mph 71.7% 0 in 70 W/m2
07:14 39.6 °F 31.3 °F 30.3 in WNW 1.5 mph 3.5 mph 71.7% 0 in 83 W/m2
07:19 40.3 °F 31.6 °F 30.3 in WNW 1.1 mph 3 mph 71.1% 0 in 97 W/m2
07:24 41.2 °F 32 °F 30.3 in West 2.1 mph 4 mph 70% 0 in 107 W/m2
07:29 41 °F 32.2 °F 30.3 in West 1.5 mph 4 mph 70.8% 0 in 123 W/m2
07:34 41 °F 32.5 °F 30.3 in West 0.3 mph 3 mph 71.7% 0 in 135 W/m2
07:39 41.9 °F 32.9 °F 30.3 in NW 0.7 mph 2.3 mph 70.3% 0 in 151 W/m2
07:44 43.2 °F 33.4 °F 30.3 in NNE 0.2 mph 2 mph 68.4% 0 in 163 W/m2
07:49 44.1 °F 33.6 °F 30.3 in NNE 0.1 mph 1.2 mph 66.5% 0 in 176 W/m2
07:54 44.8 °F 33.6 °F 30.3 in North 0.5 mph 1.2 mph 64.8% 0 in 188 W/m2
07:59 45.5 °F 33.6 °F 30.3 in WNW 2.4 mph 4 mph 63.3% 0 in 202 W/m2
08:04 45.7 °F 33.8 °F 30.3 in WNW 1.8 mph 4 mph 63.1% 0 in 213 W/m2
08:09 46.2 °F 34.5 °F 30.3 in NW 0.8 mph 3 mph 63.3% 0 in 227 W/m2
08:14 47.1 °F 34.9 °F 30.3 in WNW 0.9 mph 2.3 mph 62.4% 0 in 237 W/m2
08:19 47.8 °F 35.6 °F 30.3 in West 1.2 mph 3 mph 62.5% 0 in 221 W/m2
08:24 48.2 °F 36.3 °F 30.3 in WSW 0.6 mph 3.5 mph 63.3% 0 in 269 W/m2
08:29 49.3 °F 36.9 °F 30.3 in NW 0.9 mph 2.3 mph 62.4% 0 in 279 W/m2
08:34 50.2 °F 36.7 °F 30.3 in NNW 0.3 mph 2.3 mph 59.6% 0 in 292 W/m2
08:39 50.9 °F 37 °F 30.3 in NNW 0.1 mph 2 mph 59.1% 0 in 302 W/m2
08:44 51.3 °F 36.1 °F 30.3 in NNW 0.2 mph 1.2 mph 56.3% 0 in 318 W/m2
08:49 51.6 °F 37 °F 30.3 in NNW 0.2 mph 1.2 mph 57.1% 0 in 330 W/m2
08:54 52.3 °F 37 °F 30.3 in NW 0.3 mph 2 mph 55.8% 0 in 343 W/m2
08:59 53.1 °F 37.8 °F 30.3 in WNW 0.5 mph 2.3 mph 56.1% 0 in 357 W/m2
09:04 53.6 °F 38.7 °F 30.3 in West 0.4 mph 2.3 mph 56.7% 0 in 369 W/m2
09:09 54.3 °F 39.2 °F 30.3 in WNW 0.5 mph 2.3 mph 56.3% 0 in 383 W/m2
09:14 55 °F 39.2 °F 30.3 in NW 0.4 mph 2.3 mph 55.1% 0 in 392 W/m2
09:19 55.4 °F 39 °F 30.3 in NW 0.6 mph 2.3 mph 54% 0 in 406 W/m2
09:24 55.8 °F 38.1 °F 30.3 in West 0.9 mph 2.3 mph 51.4% 0 in 422 W/m2
09:29 56.1 °F 38.8 °F 30.3 in West 0.6 mph 2.3 mph 52.3% 0 in 434 W/m2
09:34 56.8 °F 38.5 °F 30.3 in SW 1.1 mph 3.5 mph 50.3% 0 in 450 W/m2
09:39 57.4 °F 38.3 °F 30.4 in SW 0.9 mph 4 mph 48.9% 0 in 461 W/m2
09:44 57.9 °F 38.5 °F 30.4 in SW 2.2 mph 4 mph 48.2% 0 in 471 W/m2
09:49 58.3 °F 37.9 °F 30.3 in SW 2.2 mph 4 mph 46.8% 0 in 476 W/m2
09:54 59 °F 37.9 °F 30.4 in SSW 1.6 mph 4 mph 45.7% 0 in 490 W/m2
09:59 59.2 °F 37.4 °F 30.4 in SW 1.4 mph 4 mph 44.2% 0 in 501 W/m2
10:04 59.4 °F 37.6 °F 30.4 in WNW 0.8 mph 3.5 mph 44.2% 0 in 512 W/m2
10:09 60.1 °F 38.3 °F 30.4 in SW 0.9 mph 3.5 mph 44.5% 0 in 522 W/m2
10:14 60.4 °F 38.3 °F 30.4 in SSE 1.7 mph 3.5 mph 43.9% 0 in 534 W/m2
10:19 60.6 °F 38.1 °F 30.4 in SSW 1.4 mph 3.5 mph 43.1% 0 in 543 W/m2
10:24 60.8 °F 38.7 °F 30.4 in SW 1.6 mph 3.5 mph 43.8% 0 in 550 W/m2
10:29 61.3 °F 38.5 °F 30.4 in WNW 0.8 mph 3.5 mph 42.8% 0 in 557 W/m2
10:34 62.4 °F 40.1 °F 30.4 in NW 1.4 mph 5 mph 43.5% 0 in 564 W/m2
10:39 62.6 °F 38.5 °F 30.4 in East 2.7 mph 6 mph 40.9% 0 in 575 W/m2
10:44 62.6 °F 38.8 °F 30.3 in East 1.4 mph 6 mph 41.6% 0 in 585 W/m2
10:49 63.3 °F 38.3 °F 30.3 in ESE 1.6 mph 6 mph 39.6% 0 in 591 W/m2
10:54 63.3 °F 37.9 °F 30.3 in SE 3 mph 6 mph 39.1% 0 in 599 W/m2
10:59 63.3 °F 37.9 °F 30.3 in ESE 2.7 mph 6 mph 39.2% 0 in 605 W/m2
11:04 63.5 °F 37.9 °F 30.3 in ESE 3.4 mph 8.1 mph 38.8% 0 in 613 W/m2
11:09 64.2 °F 37.9 °F 30.3 in East 3.5 mph 8 mph 38% 0 in 621 W/m2
11:14 64.6 °F 38.5 °F 30.3 in ESE 2.8 mph 8.1 mph 38.2% 0 in 628 W/m2
11:19 65.1 °F 38.5 °F 30.3 in East 4.5 mph 11.5 mph 37.4% 0 in 633 W/m2
11:24 64.8 °F 37.9 °F 30.3 in SE 2.9 mph 12 mph 37.1% 0 in 640 W/m2
11:29 65.3 °F 38.3 °F 30.3 in ESE 5.5 mph 10.4 mph 37% 0 in 645 W/m2
11:34 65.1 °F 37.2 °F 30.3 in East 2.7 mph 10 mph 35.5% 0 in 650 W/m2
11:39 65.8 °F 37.9 °F 30.3 in ENE 5 mph 10.4 mph 35.8% 0 in 656 W/m2
11:44 65.7 °F 37.8 °F 30.3 in NE 3.8 mph 8.1 mph 35.6% 0 in 659 W/m2
11:49 66 °F 38.7 °F 30.3 in East 4.2 mph 8.1 mph 36.5% 0 in 661 W/m2
11:54 66 °F 38.7 °F 30.3 in ENE 1.9 mph 8 mph 36.4% 0 in 663 W/m2
11:59 66 °F 37.8 °F 30.3 in ESE 2.4 mph 7 mph 35.3% 0 in 666 W/m2
12:04 66.4 °F 38.7 °F 30.3 in ENE 2.1 mph 7 mph 35.9% 0 in 668 W/m2
12:09 67.1 °F 39.7 °F 30.3 in NE 3.4 mph 10.4 mph 36.7% 0 in 675 W/m2
12:14 67.6 °F 40.3 °F 30.3 in South 2.7 mph 10 mph 37% 0 in 675 W/m2
12:19 67.8 °F 40.3 °F 30.3 in South 1.9 mph 7 mph 36.6% 0 in 679 W/m2
12:24 67.3 °F 40.5 °F 30.3 in SSW 3.3 mph 9 mph 37.7% 0 in 679 W/m2
12:29 67.6 °F 39.7 °F 30.3 in South 3 mph 9.2 mph 36% 0 in 680 W/m2
12:34 67.6 °F 39.7 °F 30.3 in East 2.4 mph 9 mph 36.1% 0 in 682 W/m2
12:39 67.6 °F 39.4 °F 30.3 in ESE 1.7 mph 7 mph 35.5% 0 in 686 W/m2
12:44 68 °F 39.9 °F 30.3 in ESE 4.5 mph 8.1 mph 35.9% 0 in 687 W/m2
12:49 68.5 °F 40.1 °F 30.3 in South 3 mph 8 mph 35.5% 0 in 687 W/m2
12:54 68.7 °F 40.3 °F 30.3 in SSE 3.9 mph 8.1 mph 35.5% 0 in 682 W/m2
12:59 68.7 °F 40.5 °F 30.3 in South 3.2 mph 8.1 mph 35.6% 0 in 682 W/m2
13:04 68.9 °F 40.8 °F 30.3 in SSW 3.2 mph 8 mph 35.8% 0 in 680 W/m2
13:09 69.3 °F 40.6 °F 30.3 in SSW 3.9 mph 8.1 mph 35.1% 0 in 680 W/m2
13:14 69.1 °F 39.4 °F 30.3 in SW 2.9 mph 8 mph 33.8% 0 in 677 W/m2
13:19 69.1 °F 40.1 °F 30.3 in WSW 5.2 mph 9.2 mph 34.8% 0 in 680 W/m2
13:24 69.3 °F 39.4 °F 30.3 in South 5.1 mph 8.1 mph 33.7% 0 in 677 W/m2
13:29 69.3 °F 39.2 °F 30.3 in SSW 3.3 mph 8 mph 33.2% 0 in 684 W/m2
13:34 69.8 °F 38.8 °F 30.3 in South 1.6 mph 6 mph 32.2% 0 in 670 W/m2
13:39 69.4 °F 38.8 °F 30.3 in South 1.6 mph 8 mph 32.7% 0 in 666 W/m2
13:44 69.8 °F 36.9 °F 30.3 in ENE 3.1 mph 8.1 mph 29.9% 0 in 664 W/m2
13:49 70.2 °F 36 °F 30.3 in NE 3.5 mph 8.1 mph 28.5% 0 in 661 W/m2
13:54 70.3 °F 36 °F 30.3 in NNE 1.9 mph 8 mph 28.3% 0 in 668 W/m2
13:59 69.8 °F 36.3 °F 30.3 in SE 2.2 mph 6 mph 29.3% 0 in 656 W/m2
14:04 70 °F 36.7 °F 30.3 in ESE 5.3 mph 10.4 mph 29.6% 0 in 656 W/m2
14:09 70 °F 36.3 °F 30.3 in SE 3.5 mph 10 mph 29.1% 0 in 656 W/m2
14:14 69.6 °F 34.9 °F 30.3 in ESE 4.8 mph 11.5 mph 27.9% 0 in 650 W/m2
14:19 70 °F 34.9 °F 30.3 in SE 4 mph 12 mph 27.4% 0 in 633 W/m2
14:24 70.3 °F 35.1 °F 30.3 in SW 3.3 mph 8 mph 27.3% 0 in 628 W/m2
14:29 70.2 °F 34.5 °F 30.3 in East 4.2 mph 11.5 mph 26.9% 0 in 608 W/m2
14:34 70.5 °F 35.1 °F 30.3 in East 7 mph 12 mph 27.1% 0 in 603 W/m2
14:39 70.5 °F 35.6 °F 30.3 in East 5.5 mph 12 mph 27.8% 0 in 585 W/m2
14:44 70.7 °F 36 °F 30.3 in ENE 3.9 mph 13 mph 27.9% 0 in 566 W/m2
14:49 71.1 °F 35.4 °F 30.3 in ENE 6.6 mph 13 mph 27.1% 0 in 561 W/m2
14:54 71.2 °F 36 °F 30.3 in ESE 3.2 mph 12 mph 27.4% 0 in 545 W/m2
14:59 71.6 °F 36.7 °F 30.3 in ENE 5.4 mph 12 mph 28% 0 in 540 W/m2
15:04 71.2 °F 34.9 °F 30.3 in ESE 5.6 mph 12 mph 26.3% 0 in 538 W/m2
15:09 70.9 °F 34.3 °F 30.3 in East 6.6 mph 11.5 mph 26.2% 0 in 527 W/m2
15:14 70.9 °F 34.5 °F 30.3 in East 6.5 mph 12 mph 26.2% 0 in 506 W/m2
15:19 70.9 °F 34.7 °F 30.3 in East 6.8 mph 11.5 mph 26.5% 0 in 483 W/m2
15:24 70.9 °F 34.3 °F 30.3 in ENE 5.1 mph 12 mph 26.2% 0 in 490 W/m2
15:29 70.7 °F 34 °F 30.3 in ENE 5.5 mph 10.4 mph 25.7% 0 in 492 W/m2
15:34 70.9 °F 34.2 °F 30.3 in ENE 4.6 mph 10 mph 26% 0 in 459 W/m2
15:39 70.9 °F 34.3 °F 30.3 in ENE 5.4 mph 11.5 mph 26% 0 in 434 W/m2
15:44 71.1 °F 33.6 °F 30.3 in East 5.2 mph 10 mph 25.2% 0 in 422 W/m2
15:49 71.1 °F 32.9 °F 30.3 in ENE 6.3 mph 10.4 mph 24.5% 0 in 411 W/m2
15:54 71.1 °F 33.1 °F 30.3 in ESE 4.8 mph 10 mph 24.7% 0 in 401 W/m2
15:59 71.1 °F 33.6 °F 30.3 in SE 4.4 mph 8.1 mph 25.2% 0 in 396 W/m2
16:04 71.2 °F 34.2 °F 30.3 in SE 4.2 mph 8.1 mph 25.6% 0 in 380 W/m2
16:09 71.1 °F 34.2 °F 30.3 in East 4.8 mph 8.1 mph 25.7% 0 in 360 W/m2
16:14 71.2 °F 34.5 °F 30.3 in ENE 5.3 mph 9.2 mph 26% 0 in 346 W/m2
16:19 71.1 °F 33.6 °F 30.3 in ENE 5.6 mph 10.4 mph 25.2% 0 in 338 W/m2
16:24 70.9 °F 33.8 °F 30.3 in East 4.8 mph 10 mph 25.5% 0 in 320 W/m2
16:29 71.1 °F 33.8 °F 30.3 in ENE 3.6 mph 8 mph 25.4% 0 in 316 W/m2
16:34 70.9 °F 34.7 °F 30.3 in ESE 3.4 mph 7 mph 26.4% 0 in 295 W/m2
16:39 70.7 °F 34.7 °F 30.3 in SE 1.5 mph 7 mph 26.6% 0 in 283 W/m2
16:44 70.5 °F 35.4 °F 30.3 in ESE 1.9 mph 4 mph 27.6% 0 in 272 W/m2
16:49 70.7 °F 34.9 °F 30.3 in ESE 3.7 mph 8.1 mph 26.9% 0 in 260 W/m2
16:54 70.5 °F 34 °F 30.3 in SE 3.7 mph 8 mph 26% 0 in 241 W/m2
16:59 70.3 °F 34.2 °F 30.3 in SE 2.5 mph 8.1 mph 26.4% 0 in 229 W/m2
17:04 70.2 °F 34 °F 30.3 in SE 3.1 mph 8 mph 26.4% 0 in 220 W/m2
17:09 70.2 °F 34.3 °F 30.3 in SE 3.4 mph 8.1 mph 26.7% 0 in 207 W/m2
17:14 70 °F 34.5 °F 30.3 in SE 3.5 mph 8.1 mph 27% 0 in 186 W/m2
17:19 70 °F 34.3 °F 30.3 in SSE 3.3 mph 8 mph 27% 0 in 172 W/m2
17:24 70 °F 34.3 °F 30.3 in SE 2.9 mph 7 mph 27% 0 in 160 W/m2
17:29 69.6 °F 34.7 °F 30.3 in SE 2.9 mph 5 mph 27.6% 0 in 142 W/m2
17:34 69.6 °F 34.9 °F 30.3 in SSE 1.9 mph 5 mph 27.9% 0 in 60 W/m2
17:39 69.4 °F 34.9 °F 30.3 in SE 1.4 mph 3.5 mph 28% 0 in 79 W/m2
17:44 68.9 °F 34.5 °F 30.3 in SE 2.2 mph 5 mph 28% 0 in 84 W/m2
17:49 68.7 °F 34.3 °F 30.3 in SSE 2.2 mph 5 mph 28% 0 in 81 W/m2
17:54 68.4 °F 34.5 °F 30.3 in SSE 1.7 mph 4 mph 28.6% 0 in 69 W/m2
17:59 68 °F 34.9 °F 30.3 in SSE 1.2 mph 4 mph 29.5% 0 in 56 W/m2
18:04 67.6 °F 34.5 °F 30.3 in South 1 mph 3.5 mph 29.3% 0 in 46 W/m2
18:09 67.3 °F 34.7 °F 30.3 in SSE 1.1 mph 3.5 mph 30.1% 0 in 37 W/m2
18:14 67.1 °F 34.5 °F 30.3 in SSE 1.1 mph 3 mph 29.9% 0 in 28 W/m2
18:19 66.7 °F 34.3 °F 30.3 in South 1.3 mph 3.5 mph 30% 0 in 19 W/m2
18:24 66.2 °F 35.2 °F 30.3 in South 1.4 mph 3.5 mph 31.7% 0 in 16 W/m2
18:29 65.7 °F 35.6 °F 30.3 in South 1.4 mph 4 mph 32.9% 0 in 12 W/m2
18:34 64.9 °F 35.8 °F 30.3 in SSE 1.1 mph 4 mph 33.9% 0 in 9 W/m2
18:39 64.4 °F 35.8 °F 30.3 in SSE 0.9 mph 2.3 mph 34.5% 0 in 5 W/m2
18:44 63.5 °F 36.5 °F 30.3 in SSE 0.7 mph 2 mph 36.7% 0 in 0 W/m2
18:49 63 °F 36.9 °F 30.3 in South 1.1 mph 2.3 mph 38% 0 in 0 W/m2
18:54 62.2 °F 36.7 °F 30.3 in South 0.7 mph 2.3 mph 38.6% 0 in 0 W/m2
18:59 61.5 °F 37 °F 30.3 in South 0.6 mph 2 mph 40.1% 0 in 0 W/m2
19:04 61 °F 36.5 °F 30.3 in South 1.3 mph 3.5 mph 40.3% 0 in 0 W/m2
19:09 60.4 °F 36.3 °F 30.3 in South 1.1 mph 3 mph 40.4% 0 in 0 W/m2
19:14 60.1 °F 36.3 °F 30.3 in South 0.9 mph 2.3 mph 41% 0 in 0 W/m2
19:19 59.7 °F 36.1 °F 30.3 in South 0.4 mph 2 mph 41.4% 0 in 0 W/m2
19:24 59.2 °F 36.7 °F 30.3 in South 0.5 mph 1.2 mph 42.8% 0 in 0 W/m2
19:29 58.8 °F 36.7 °F 30.3 in South 0.5 mph 1.2 mph 43.5% 0 in 0 W/m2
19:34 58.5 °F 36.9 °F 30.3 in South 0.6 mph 1.2 mph 44.6% 0 in 0 W/m2
19:39 58.1 °F 36.5 °F 30.3 in South 0.2 mph 1.2 mph 44.4% 0 in 0 W/m2
19:44 57.6 °F 36 °F 30.3 in South 0.1 mph 1.2 mph 44.4% 0 in 0 W/m2
19:49 57.2 °F 36.5 °F 30.3 in SSW 0.8 mph 2.3 mph 45.8% 0 in 0 W/m2
19:54 56.8 °F 36.7 °F 30.3 in SW 1.2 mph 2.3 mph 46.7% 0 in 0 W/m2
19:59 56.5 °F 36.9 °F 30.3 in WNW 1.6 mph 3.5 mph 48% 0 in 0 W/m2
20:04 56.1 °F 37 °F 30.3 in NW 1.7 mph 3 mph 48.5% 0 in 0 W/m2
20:09 55.9 °F 36.7 °F 30.3 in NW 1.7 mph 2.3 mph 48% 0 in 0 W/m2
20:14 55.9 °F 36.7 °F 30.3 in NW 1.3 mph 2.3 mph 48.5% 0 in 0 W/m2
20:19 55.4 °F 36.9 °F 30.3 in NW 1.2 mph 2.3 mph 49.4% 0 in 0 W/m2
20:24 54.7 °F 36.9 °F 30.3 in NW 0.8 mph 2.3 mph 50.7% 0 in 0 W/m2
20:29 54.3 °F 36.5 °F 30.3 in NW 0.7 mph 2 mph 51% 0 in 0 W/m2
20:34 54.1 °F 36.1 °F 30.3 in NW 0.8 mph 1.2 mph 50.4% 0 in 0 W/m2
20:39 54.1 °F 36.3 °F 30.3 in NW 0.7 mph 1.2 mph 50.8% 0 in 0 W/m2
20:44 54 °F 36.3 °F 30.3 in NW 0.1 mph 1.2 mph 51% 0 in 0 W/m2
20:49 53.2 °F 36 °F 30.3 in Calm   1 mph 51.8% 0 in 0 W/m2
20:54 52.9 °F 36 °F 30.3 in NW 0.2 mph 2.3 mph 52.8% 0 in 0 W/m2
20:59 53.1 °F 36.9 °F 30.3 in NW 1.4 mph 2.3 mph 54.1% 0 in 0 W/m2
21:04 52.9 °F 36.9 °F 30.3 in NW 0.2 mph 2.3 mph 54.2% 0 in 0 W/m2
21:09 52.3 °F 36.5 °F 30.3 in Calm   2 mph 54.8% 0 in 0 W/m2
21:14 52 °F 36.9 °F 30.3 in North 1.3 mph 3.5 mph 56.4% 0 in 0 W/m2
21:19 52.3 °F 37 °F 30.3 in North 2.2 mph 3.5 mph 56% 0 in 0 W/m2
21:24 52 °F 36.7 °F 30.3 in North 1.4 mph 3 mph 55.7% 0 in 0 W/m2
21:29 51.4 °F 36.7 °F 30.3 in North 1.7 mph 3 mph 56.9% 0 in 0 W/m2
21:34 51.6 °F 36.9 °F 30.3 in North 2 mph 3.5 mph 56.8% 0 in 0 W/m2
21:39 52.2 °F 36.7 °F 30.3 in NE 2.5 mph 4 mph 55.3% 0 in 0 W/m2
21:44 52.7 °F 36 °F 30.3 in NE 3.7 mph 5 mph 53% 0 in 0 W/m2
21:49 52.9 °F 36 °F 30.3 in NE 2.9 mph 5 mph 52.6% 0 in 0 W/m2
21:54 52.3 °F 36.5 °F 30.3 in ENE 2 mph 4 mph 54.6% 0 in 0 W/m2
21:59 50.9 °F 36.5 °F 30.3 in ENE 1.7 mph 3.5 mph 57.7% 0 in 0 W/m2
22:04 49.6 °F 37.2 °F 30.3 in ENE 1.7 mph 3.5 mph 62% 0 in 0 W/m2
22:09 48.4 °F 37.4 °F 30.3 in ENE 1.4 mph 3 mph 65.7% 0 in 0 W/m2
22:14 47.8 °F 37.4 °F 30.3 in ENE 1.2 mph 2.3 mph 66.8% 0 in 0 W/m2
22:19 48.2 °F 37.9 °F 30.3 in ENE 1.7 mph 2.3 mph 67.8% 0 in 0 W/m2
22:24 48.4 °F 37.9 °F 30.3 in ENE 1.4 mph 2.3 mph 67% 0 in 0 W/m2
22:29 48.9 °F 37.9 °F 30.3 in ENE 0.7 mph 2 mph 65.9% 0 in 0 W/m2
22:34 49.1 °F 37.6 °F 30.3 in NE 1.4 mph 3.5 mph 64.4% 0 in 0 W/m2
22:39 49.5 °F 37.8 °F 30.3 in NE 1.9 mph 3.5 mph 64% 0 in 0 W/m2
22:44 49.6 °F 37.8 °F 30.3 in NE 1.7 mph 3 mph 63.5% 0 in 0 W/m2
22:49 49.8 °F 37.4 °F 30.3 in NE 2.4 mph 3.5 mph 62.3% 0 in 0 W/m2
22:54 50.5 °F 37.2 °F 30.3 in NE 3.3 mph 5 mph 60% 0 in 0 W/m2
22:59 51.4 °F 36.7 °F 30.3 in NE 4 mph 5 mph 57% 0 in 0 W/m2
23:04 51.8 °F 36.7 °F 30.3 in ENE 2.6 mph 5 mph 56.1% 0 in 0 W/m2
23:09 50.9 °F 36.5 °F 30.3 in ENE 2.6 mph 5 mph 57.7% 0 in 0 W/m2
23:14 50.5 °F 36.5 °F 30.3 in ENE 2 mph 5 mph 58.1% 0 in 0 W/m2
23:19 50.2 °F 36.5 °F 30.3 in ENE 1.5 mph 3 mph 59.5% 0 in 0 W/m2
23:24 49.5 °F 36.5 °F 30.3 in ENE 1.4 mph 2.3 mph 60.9% 0 in 0 W/m2
23:29 48.7 °F 36.7 °F 30.3 in ENE 1.9 mph 3.5 mph 62.8% 0 in 0 W/m2
23:34 48.6 °F 36.9 °F 30.3 in NE 2.3 mph 3.5 mph 63.8% 0 in 0 W/m2
23:39 48.2 °F 37 °F 30.3 in NE 1.9 mph 3.5 mph 65% 0 in 0 W/m2
23:44 48 °F 37 °F 30.3 in NE 2.3 mph 3.5 mph 65.7% 0 in 0 W/m2
23:49 47.8 °F 37 °F 30.3 in NE 2.2 mph 3.5 mph 66% 0 in 0 W/m2
23:54 47.7 °F 36.9 °F 30.3 in NE 2.4 mph 4 mph 66% 0 in 0 W/m2
23:59 48 °F 36.7 °F 30.3 in NE 2.5 mph 4 mph 64.7% 0 in 0 W/m2
Stazione Meteorologica MeteoMincio Rivalta s/M (MN)
Con i complimenti di Weather Underground - 4 mb


METEO PILLOLE
Maggior quantità di pioggia caduta in 12 mesi
Cherrapunji (1313 m) - India
tra il 1 agosto 1860 e il 31 luglio 1861 sono caduti 26466.8 mm .

Do NOT follow this link or you will be banned from the site!